logo tempoitalia

Diretta Meteo Boise, Stati Uniti (USA)domenica 30 agosto ore 23:53

Mappa
Sereno 16 °C Sereno 24 Ore: T.min 11 T.max 25
Ponente Sud-Est Km/h 11.1 Punto di rugiada: -4 °C Umidità: 24% Visibilità: 10 Km
Il sole sorge alle: 07:06 Il sole tramonta alle: 20:24
30 Agosto 2026 23:53 tempo osservato: Sereno Sereno 16 24 1016 vento: Nord SE 11.1
30 Agosto 2026 22:53 tempo osservato: Sereno Sereno 18 25 1016 vento: Nord O 7.4
30 Agosto 2026 21:53 tempo osservato: Sereno Sereno 18 23 1016 vento: Nord N 5.5
30 Agosto 2026 20:53 tempo osservato: Sereno Sereno 21 18 1016 vento: Nord N 0
30 Agosto 2026 19:53 tempo osservato: Sereno Sereno 22 14 1015 vento: Nord N 16.7
30 Agosto 2026 18:53 tempo osservato: Sereno Sereno 24 16 1016 vento: Nord N 16.7
30 Agosto 2026 17:53 tempo osservato: Sereno Sereno 25 10 1017 vento: Nord NO 13
30 Agosto 2026 16:53 tempo osservato: Sereno Sereno 23 16 1017 vento: Nord N/NO 9.3
30 Agosto 2026 15:53 tempo osservato: Sereno Sereno 23 18 1018 vento: Nord NO 13
30 Agosto 2026 14:53 tempo osservato: Sereno Sereno 22 21 1018 vento: Nord N/NO 18.5
30 Agosto 2026 13:53 tempo osservato: Sereno Sereno 21 22 1019 vento: Nord NO 20.3
30 Agosto 2026 12:53 tempo osservato: Sereno Sereno 18 31 1020 vento: Nord O/NO 16.7
30 Agosto 2026 11:53 tempo osservato: Sereno Sereno 18 34 1020 vento: Nord NO 13
30 Agosto 2026 10:53 tempo osservato: Sereno Sereno 16 41 1020 vento: Nord N 0
30 Agosto 2026 09:53 tempo osservato: Sereno Sereno 14 44 1020 vento: Nord N/NO 11.1
30 Agosto 2026 08:53 tempo osservato: Sereno Sereno 13 47 1020 vento: Nord NO 13
30 Agosto 2026 07:53 tempo osservato: Sereno Sereno 11 53 1019 vento: Nord N 0
30 Agosto 2026 06:53 tempo osservato: Sereno Sereno 11 53 1018 vento: Nord N 5.5
30 Agosto 2026 05:53 tempo osservato: Sereno Sereno 11 53 1018 vento: Nord NO 14.8
30 Agosto 2026 04:53 tempo osservato: Sereno Sereno 12 50 1018 vento: Nord NO 16.7
30 Agosto 2026 03:53 tempo osservato: Sereno Sereno 13 43 1017 vento: Nord O/NO 18.5
30 Agosto 2026 02:53 tempo osservato: Sereno Sereno 14 44 1016 vento: Nord O 11.1
30 Agosto 2026 01:53 tempo osservato: Sereno Sereno 16 36 1016 vento: Nord O/NO 22.2
30 Agosto 2026 00:53 tempo osservato: Sereno Sereno 18 29 1014 vento: Nord O/NO 20.3